MMRX/REX METAR and TAF weather

Enter ICAO airport designator
Station Type Date Time Source
MMRX METAR 2019/04/26 00:41 UTC NOAA

MMRX 260041Z 08002KT 10SM SCT130 SCT300 30/10 A2988 RMK 8/032 HZY


Station Type Date Time Source
MMRX Decoded METAR 2019/04/26 00:41 UTC NOAA

Reynosa International Airport , Mexico (MMRX) 26-01N 098-14W
Apr 25, 2019 - 08:41 PM EDT / 2019.04.26 0041 UTC
Wind: from the E (080 degrees) at 2 MPH (2 KT):0
Visibility: 10 mile(s):0
Sky conditions: partly cloudy
Temperature: 86 F (30 C)
Dew Point: 50 F (10 C)
Relative Humidity: 28%
Pressure (altimeter): 29.88 in. Hg (1011 hPa)
ob: MMRX 260041Z 08002KT 10SM SCT130 SCT300 30/10 A2988 RMK 8/032 HZY
cycle: 0

Station Type Date Time Source
MMRX TAF 2019/04/25 18:50 UTC NOAA

TAF MMRX 251645Z 2518/2618 34015KT P6SM SCT250
FM260300 04010KT P6SM SCT250
FM261500 00000KT 4SM HZ FU SCT250

Example: see airport list